VOZ8384 YBRM-YANG
Flight info
| Callsign | VOZ8384 |
|---|---|
| Flight time | N/A |
| Altitude | 34000 |
| Route | YBRM/28 BRM Q38 LOTVI |
| Aircraft | B738/M-SDE2E3FGHIRWXY/LB1 |
Departure
| Time | N/A |
|---|---|
| Airport | Broome International Airport (YBRM) |
Arrival
| Time | 2026-05-06 11:41 |
|---|---|
| Airport | West Angelas Airport (YANG) |
| Time | Latitude | Longitude | Altitude | Speed | Heading |
|---|---|---|---|---|---|
| 2026-05-06 11:06 | -21.02390 | 120.41306 | 34012 ft | 382 kts | 226° |
| 2026-05-06 11:07 | -21.04467 | 120.39527 | 34009 ft | 382 kts | 226° |
| 2026-05-06 11:07 | -21.08594 | 120.35992 | 34051 ft | 382 kts | 226° |
| 2026-05-06 11:08 | -21.12754 | 120.32425 | 34026 ft | 383 kts | 226° |
| 2026-05-06 11:08 | -21.16916 | 120.28854 | 34025 ft | 383 kts | 226° |
| 2026-05-06 11:09 | -21.21079 | 120.25279 | 34024 ft | 383 kts | 226° |
| 2026-05-06 11:09 | -21.25233 | 120.21710 | 34025 ft | 383 kts | 226° |
| 2026-05-06 11:10 | -21.29385 | 120.18140 | 34036 ft | 382 kts | 226° |
| 2026-05-06 11:10 | -21.33535 | 120.14568 | 34036 ft | 382 kts | 226° |
| 2026-05-06 11:11 | -21.37684 | 120.10995 | 34028 ft | 382 kts | 226° |
| 2026-05-06 11:11 | -21.41825 | 120.07426 | 34035 ft | 382 kts | 226° |
| 2026-05-06 11:12 | -21.45946 | 120.03874 | 33569 ft | 377 kts | 226° |
| 2026-05-06 11:12 | -21.48001 | 120.02099 | 32693 ft | 383 kts | 225° |
| 2026-05-06 11:12 | -21.50068 | 120.00309 | 31874 ft | 389 kts | 225° |
| 2026-05-06 11:12 | -21.52206 | 119.98460 | 31258 ft | 390 kts | 224° |
| 2026-05-06 11:13 | -21.54279 | 119.96671 | 30914 ft | 384 kts | 224° |
| 2026-05-06 11:13 | -21.56348 | 119.94888 | 30566 ft | 378 kts | 224° |
| 2026-05-06 11:13 | -21.58387 | 119.93129 | 30215 ft | 374 kts | 224° |
| 2026-05-06 11:13 | -21.60424 | 119.91366 | 29833 ft | 379 kts | 224° |
| 2026-05-06 11:14 | -21.62489 | 119.89576 | 29430 ft | 384 kts | 224° |
| 2026-05-06 11:14 | -21.64571 | 119.87771 | 29024 ft | 384 kts | 223° |
| 2026-05-06 11:14 | -21.66642 | 119.85979 | 28621 ft | 381 kts | 223° |
| 2026-05-06 11:14 | -21.68700 | 119.84197 | 28228 ft | 379 kts | 223° |
| 2026-05-06 11:15 | -21.70745 | 119.82427 | 27840 ft | 377 kts | 223° |
| 2026-05-06 11:15 | -21.72787 | 119.80656 | 27468 ft | 379 kts | 223° |
| 2026-05-06 11:15 | -21.74861 | 119.78854 | 27105 ft | 387 kts | 223° |
| 2026-05-06 11:15 | -21.76969 | 119.77022 | 26739 ft | 391 kts | 223° |
| 2026-05-06 11:16 | -21.79084 | 119.75187 | 26369 ft | 389 kts | 222° |
| 2026-05-06 11:16 | -21.80504 | 119.73955 | 26121 ft | 387 kts | 222° |
| 2026-05-06 11:16 | -21.82597 | 119.72140 | 25761 ft | 386 kts | 222° |
| 2026-05-06 11:16 | -21.84682 | 119.70330 | 25414 ft | 384 kts | 222° |
| 2026-05-06 11:17 | -21.86758 | 119.68526 | 25061 ft | 383 kts | 222° |
| 2026-05-06 11:17 | -21.88833 | 119.66722 | 24722 ft | 383 kts | 222° |
| 2026-05-06 11:17 | -21.90905 | 119.64919 | 24379 ft | 382 kts | 221° |
| 2026-05-06 11:17 | -21.92973 | 119.63119 | 24046 ft | 382 kts | 221° |
| 2026-05-06 11:18 | -21.95038 | 119.61322 | 23709 ft | 382 kts | 221° |
| 2026-05-06 11:18 | -21.97107 | 119.59520 | 23325 ft | 382 kts | 221° |
| 2026-05-06 11:18 | -21.99174 | 119.57719 | 22931 ft | 382 kts | 221° |
| 2026-05-06 11:18 | -22.01239 | 119.55919 | 22536 ft | 382 kts | 221° |
| 2026-05-06 11:19 | -22.03275 | 119.54144 | 22153 ft | 381 kts | 221° |
| 2026-05-06 11:19 | -22.05330 | 119.52351 | 21775 ft | 380 kts | 221° |
| 2026-05-06 11:19 | -22.07378 | 119.50565 | 21397 ft | 378 kts | 221° |
| 2026-05-06 11:19 | -22.09414 | 119.48789 | 21024 ft | 375 kts | 221° |
| 2026-05-06 11:20 | -22.12119 | 119.46427 | 20548 ft | 373 kts | 220° |
| 2026-05-06 11:20 | -22.13449 | 119.45266 | 20309 ft | 371 kts | 220° |
| 2026-05-06 11:20 | -22.15452 | 119.43515 | 19945 ft | 370 kts | 220° |
| 2026-05-06 11:20 | -22.17447 | 119.41771 | 19589 ft | 368 kts | 220° |
| 2026-05-06 11:21 | -22.19432 | 119.40035 | 19244 ft | 366 kts | 220° |
| 2026-05-06 11:21 | -22.21405 | 119.38309 | 18900 ft | 365 kts | 220° |
| 2026-05-06 11:21 | -22.23375 | 119.36585 | 18557 ft | 364 kts | 220° |
| 2026-05-06 11:21 | -22.25335 | 119.34869 | 18202 ft | 362 kts | 220° |
| 2026-05-06 11:22 | -22.27280 | 119.33165 | 17815 ft | 361 kts | 220° |
| 2026-05-06 11:22 | -22.29227 | 119.31459 | 17425 ft | 359 kts | 220° |
| 2026-05-06 11:22 | -22.31164 | 119.29761 | 17043 ft | 358 kts | 220° |
| 2026-05-06 11:22 | -22.33092 | 119.28071 | 16668 ft | 356 kts | 220° |
| 2026-05-06 11:23 | -22.35012 | 119.26387 | 16294 ft | 355 kts | 220° |
| 2026-05-06 11:23 | -22.36923 | 119.24711 | 15925 ft | 353 kts | 220° |
| 2026-05-06 11:23 | -22.38825 | 119.23041 | 15570 ft | 351 kts | 220° |
| 2026-05-06 11:23 | -22.40717 | 119.21380 | 15210 ft | 350 kts | 220° |
| 2026-05-06 11:24 | -22.42643 | 119.19687 | 14878 ft | 364 kts | 220° |
| 2026-05-06 11:24 | -22.44626 | 119.17943 | 14531 ft | 370 kts | 220° |
| 2026-05-06 11:24 | -22.46630 | 119.16181 | 14181 ft | 372 kts | 219° |
| 2026-05-06 11:24 | -22.48635 | 119.14418 | 13827 ft | 372 kts | 219° |
| 2026-05-06 11:25 | -22.50638 | 119.12656 | 13443 ft | 372 kts | 219° |
| 2026-05-06 11:25 | -22.52618 | 119.10914 | 13069 ft | 371 kts | 219° |
| 2026-05-06 11:25 | -22.54620 | 119.09151 | 12691 ft | 371 kts | 219° |
| 2026-05-06 11:25 | -22.56624 | 119.07386 | 12319 ft | 371 kts | 219° |
| 2026-05-06 11:26 | -22.58620 | 119.05628 | 11950 ft | 370 kts | 219° |
| 2026-05-06 11:26 | -22.60611 | 119.03873 | 11576 ft | 369 kts | 219° |
| 2026-05-06 11:26 | -22.62601 | 119.02118 | 11212 ft | 368 kts | 218° |
| 2026-05-06 11:26 | -22.64585 | 119.00368 | 10852 ft | 367 kts | 218° |
| 2026-05-06 11:27 | -22.66562 | 118.98624 | 10507 ft | 367 kts | 218° |
| 2026-05-06 11:27 | -22.68538 | 118.96879 | 10158 ft | 365 kts | 218° |
| 2026-05-06 11:27 | -22.70503 | 118.95144 | 9789 ft | 364 kts | 218° |
| 2026-05-06 11:27 | -22.72461 | 118.93414 | 9406 ft | 362 kts | 218° |
| 2026-05-06 11:28 | -22.74410 | 118.91691 | 9020 ft | 360 kts | 218° |
| 2026-05-06 11:28 | -22.76318 | 118.90003 | 8624 ft | 347 kts | 218° |
| 2026-05-06 11:28 | -22.78144 | 118.88385 | 8239 ft | 332 kts | 217° |
| 2026-05-06 11:28 | -22.79894 | 118.86835 | 7956 ft | 317 kts | 217° |
| 2026-05-06 11:29 | -22.81541 | 118.85374 | 7929 ft | 297 kts | 217° |
| 2026-05-06 11:29 | -22.83146 | 118.83953 | 7946 ft | 299 kts | 217° |
| 2026-05-06 11:29 | -22.84636 | 118.82381 | 7941 ft | 297 kts | 225° |
| 2026-05-06 11:29 | -22.86027 | 118.80738 | 7931 ft | 295 kts | 226° |
| 2026-05-06 11:30 | -22.87408 | 118.79086 | 7945 ft | 297 kts | 226° |
| 2026-05-06 11:30 | -22.88798 | 118.77417 | 7940 ft | 299 kts | 226° |
| 2026-05-06 11:30 | -22.90189 | 118.75741 | 7764 ft | 301 kts | 226° |
| 2026-05-06 11:30 | -22.91597 | 118.74040 | 7524 ft | 303 kts | 226° |
| 2026-05-06 11:31 | -22.92993 | 118.72343 | 7270 ft | 299 kts | 226° |
| 2026-05-06 11:31 | -22.94362 | 118.70666 | 7022 ft | 296 kts | 226° |
| 2026-05-06 11:31 | -22.95713 | 118.68999 | 6807 ft | 293 kts | 225° |
| 2026-05-06 11:31 | -22.97055 | 118.67333 | 6556 ft | 293 kts | 226° |
| 2026-05-06 11:32 | -22.98390 | 118.65668 | 6320 ft | 292 kts | 226° |
| 2026-05-06 11:32 | -22.99716 | 118.64002 | 6078 ft | 292 kts | 226° |
| 2026-05-06 11:32 | -23.01045 | 118.62328 | 5970 ft | 293 kts | 226° |
| 2026-05-06 11:32 | -23.02385 | 118.60641 | 5950 ft | 296 kts | 226° |
| 2026-05-06 11:33 | -23.03727 | 118.58953 | 5947 ft | 294 kts | 226° |
| 2026-05-06 11:33 | -23.05065 | 118.57278 | 5937 ft | 293 kts | 226° |
| 2026-05-06 11:33 | -23.06393 | 118.55615 | 5937 ft | 292 kts | 226° |
| 2026-05-06 11:33 | -23.07713 | 118.53963 | 5917 ft | 285 kts | 226° |
| 2026-05-06 11:34 | -23.08976 | 118.52373 | 5914 ft | 272 kts | 226° |
| 2026-05-06 11:34 | -23.10177 | 118.50849 | 5913 ft | 260 kts | 226° |
| 2026-05-06 11:34 | -23.11351 | 118.49359 | 5930 ft | 260 kts | 226° |
| 2026-05-06 11:34 | -23.12527 | 118.47866 | 5941 ft | 259 kts | 226° |
| 2026-05-06 11:35 | -23.13700 | 118.46376 | 5937 ft | 259 kts | 226° |
| 2026-05-06 11:35 | -23.14873 | 118.44907 | 5766 ft | 256 kts | 223° |
| 2026-05-06 11:35 | -23.16350 | 118.43940 | 5404 ft | 245 kts | 184° |
| 2026-05-06 11:35 | -23.17937 | 118.44201 | 5285 ft | 230 kts | 144° |
| 2026-05-06 11:36 | -23.19043 | 118.45411 | 5287 ft | 225 kts | 125° |
| 2026-05-06 11:36 | -23.20067 | 118.46703 | 5248 ft | 225 kts | 128° |
| 2026-05-06 11:36 | -23.21096 | 118.47973 | 5240 ft | 223 kts | 128° |
| 2026-05-06 11:36 | -23.22109 | 118.49234 | 5237 ft | 221 kts | 128° |
| 2026-05-06 11:37 | -23.23072 | 118.50516 | 5223 ft | 216 kts | 118° |
| 2026-05-06 11:37 | -23.23416 | 118.52051 | 5247 ft | 210 kts | 89° |
| 2026-05-06 11:37 | -23.23139 | 118.53627 | 5239 ft | 217 kts | 68° |
| 2026-05-06 11:37 | -23.22405 | 118.55093 | 5252 ft | 223 kts | 63° |
| 2026-05-06 11:38 | -23.21635 | 118.56561 | 5256 ft | 223 kts | 63° |
| 2026-05-06 11:38 | -23.20859 | 118.58044 | 4999 ft | 229 kts | 63° |
| 2026-05-06 11:38 | -23.20079 | 118.59535 | 4690 ft | 230 kts | 63° |
| 2026-05-06 11:38 | -23.19294 | 118.61037 | 4367 ft | 227 kts | 64° |
| 2026-05-06 11:39 | -23.18518 | 118.62524 | 4033 ft | 217 kts | 64° |
| 2026-05-06 11:39 | -23.17811 | 118.63877 | 3740 ft | 201 kts | 64° |
| 2026-05-06 11:39 | -23.17145 | 118.65152 | 3441 ft | 186 kts | 65° |
| 2026-05-06 11:39 | -23.16540 | 118.66307 | 3213 ft | 164 kts | 65° |
| 2026-05-06 11:40 | -23.16021 | 118.67331 | 2985 ft | 148 kts | 66° |
| 2026-05-06 11:40 | -23.15543 | 118.68243 | 2905 ft | 134 kts | 62° |
| 2026-05-06 11:40 | -23.15043 | 118.69073 | 2670 ft | 131 kts | 59° |
| 2026-05-06 11:40 | -23.14459 | 118.69787 | 2396 ft | 123 kts | 49° |
| 2026-05-06 11:41 | -23.13890 | 118.70435 | 2299 ft | 110 kts | 46° |
| 2026-05-06 11:41 | -23.13555 | 118.70796 | 2299 ft | 47 kts | 44° |
| 2026-05-06 11:41 | -23.13366 | 118.71003 | 2298 ft | 35 kts | 45° |
| 2026-05-06 11:41 | -23.13218 | 118.71172 | 2301 ft | 29 kts | 47° |
| 2026-05-06 11:42 | -23.13080 | 118.71316 | 2308 ft | 20 kts | 44° |
| 2026-05-06 11:42 | -23.13026 | 118.71374 | 2300 ft | 5 kts | 345° |
| 2026-05-06 11:42 | -23.13028 | 118.71346 | 2295 ft | 5 kts | 218° |
| 2026-05-06 11:42 | -23.13084 | 118.71298 | 2303 ft | 18 kts | 220° |
| 2026-05-06 11:43 | -23.13216 | 118.71162 | 2298 ft | 33 kts | 225° |
| 2026-05-06 11:43 | -23.13385 | 118.70979 | 2303 ft | 35 kts | 226° |
| 2026-05-06 11:43 | -23.13557 | 118.70791 | 2302 ft | 34 kts | 225° |
| 2026-05-06 11:44 | -23.13726 | 118.70560 | 2297 ft | 10 kts | 300° |
| 2026-05-06 11:44 | -23.13678 | 118.70512 | 2298 ft | 9 kts | 333° |
| 2026-05-06 11:44 | -23.13613 | 118.70500 | 2305 ft | 11 kts | 15° |
| 2026-05-06 11:44 | -23.13558 | 118.70488 | 2305 ft | 0 kts | 326° |